createdAt,value
2023-03-16T00:01:38.982Z,3.40
2023-03-16T00:04:41.868Z,4.05
2023-03-16T00:07:44.449Z,2.67
2023-03-16T00:10:47.573Z,4.45
2023-03-16T00:13:50.332Z,4.40
2023-03-16T00:16:53.518Z,2.90
2023-03-16T00:19:57.308Z,2.60
2023-03-16T00:23:00.939Z,3.22
2023-03-16T00:26:06.256Z,5.00
2023-03-16T00:29:09.960Z,3.07
2023-03-16T00:32:20.815Z,3.85
2023-03-16T00:35:24.181Z,3.17
2023-03-16T00:38:26.715Z,3.83
2023-03-16T00:41:30.464Z,4.95
2023-03-16T00:44:33.108Z,2.93
2023-03-16T00:47:36.046Z,5.25
2023-03-16T00:50:38.974Z,2.37
2023-03-16T00:53:43.422Z,4.78
2023-03-16T00:56:46.414Z,5.45
2023-03-16T00:59:49.472Z,3.80
2023-03-16T01:02:52.400Z,5.70
2023-03-16T01:06:00.038Z,4.65
2023-03-16T01:09:05.563Z,4.62
2023-03-16T01:12:17.169Z,4.32
2023-03-16T01:15:20.124Z,4.70
2023-03-16T01:18:23.490Z,5.87
2023-03-16T01:21:26.154Z,4.55
2023-03-16T01:24:29.177Z,5.03
2023-03-16T01:27:31.918Z,5.45
2023-03-16T01:30:35.793Z,3.67
2023-03-16T01:33:39.472Z,5.18
2023-03-16T01:36:44.364Z,3.45
2023-03-16T01:39:47.023Z,6.00
2023-03-16T01:43:00.702Z,4.85
2023-03-16T01:46:06.728Z,5.60
2023-03-16T01:49:27.076Z,4.78
2023-03-16T01:52:35.855Z,4.97
2023-03-16T01:55:38.770Z,4.95
2023-03-16T01:58:43.046Z,4.00
2023-03-16T02:01:46.932Z,5.60
2023-03-16T02:04:54.551Z,5.72
2023-03-16T02:07:58.750Z,4.68
2023-03-16T02:11:01.657Z,7.20
2023-03-16T02:14:12.131Z,5.15
2023-03-16T02:17:21.393Z,4.73
2023-03-16T02:20:35.870Z,6.93
2023-03-16T02:23:38.697Z,6.45
2023-03-16T02:27:11.749Z,6.00
2023-03-16T02:30:16.873Z,5.03
2023-03-16T02:33:21.482Z,3.93
2023-03-16T02:36:25.867Z,3.40
2023-03-16T02:39:29.422Z,4.97
2023-03-16T02:42:32.931Z,4.07
2023-03-16T02:45:42.633Z,4.10
2023-03-16T02:48:49.892Z,4.43
2023-03-16T02:51:52.866Z,5.40
2023-03-16T02:54:55.957Z,5.68
2023-03-16T02:57:58.650Z,4.72
2023-03-16T03:01:01.817Z,4.57
2023-03-16T03:04:05.591Z,5.03
2023-03-16T03:07:08.509Z,4.55
2023-03-16T03:10:11.631Z,4.93
2023-03-16T03:13:14.617Z,2.95
2023-03-16T03:16:17.300Z,3.22
2023-03-16T03:19:20.320Z,4.70
2023-03-16T03:22:23.001Z,5.20
2023-03-16T03:25:25.876Z,4.95
2023-03-16T03:28:28.938Z,3.42
2023-03-16T03:31:34.477Z,3.62
2023-03-16T03:34:37.586Z,2.87
2023-03-16T03:37:42.504Z,3.10
2023-03-16T03:40:45.433Z,3.62
2023-03-16T03:43:48.745Z,3.83
2023-03-16T03:46:51.986Z,3.12
2023-03-16T03:49:55.950Z,3.27
2023-03-16T03:52:58.709Z,3.75
2023-03-16T03:56:02.749Z,5.07
2023-03-16T03:59:05.730Z,5.75
2023-03-16T04:02:11.329Z,5.68
2023-03-16T04:05:14.743Z,5.40
2023-03-16T04:08:17.428Z,5.25
2023-03-16T04:11:21.232Z,5.45
2023-03-16T04:14:24.605Z,5.12
2023-03-16T04:17:27.516Z,7.20
2023-03-16T04:20:33.263Z,6.90
2023-03-16T04:23:36.862Z,5.20
2023-03-16T04:26:40.011Z,6.05
2023-03-16T04:29:43.841Z,4.93
2023-03-16T04:32:46.715Z,4.47
2023-03-16T04:35:52.361Z,4.50
2023-03-16T04:38:55.568Z,5.43
2023-03-16T04:41:59.012Z,4.65
2023-03-16T04:45:02.101Z,5.85
2023-03-16T04:48:05.444Z,3.67
2023-03-16T04:51:08.147Z,5.50
2023-03-16T04:54:11.620Z,5.62
2023-03-16T04:57:14.528Z,5.12
2023-03-16T05:00:21.751Z,6.75
2023-03-16T05:03:25.477Z,6.10
2023-03-16T05:06:29.065Z,6.93
2023-03-16T05:09:32.824Z,6.12
2023-03-16T05:12:35.889Z,5.80
2023-03-16T05:15:39.838Z,6.25
2023-03-16T05:18:43.529Z,6.30
2023-03-16T05:21:46.638Z,5.60
2023-03-16T05:24:49.738Z,6.30
2023-03-16T05:27:54.358Z,9.15
2023-03-16T05:30:58.132Z,6.25
2023-03-16T05:34:02.539Z,7.87
2023-03-16T05:37:06.309Z,7.00
2023-03-16T05:40:17.442Z,9.80
2023-03-16T05:43:22.017Z,7.15
2023-03-16T05:46:25.106Z,8.77
2023-03-16T05:49:28.280Z,9.05
2023-03-16T05:52:32.294Z,10.07
2023-03-16T05:55:36.262Z,9.50
2023-03-16T05:58:40.485Z,8.05
2023-03-16T06:01:43.718Z,8.52
2023-03-16T06:04:47.409Z,9.63
2023-03-16T06:07:50.281Z,11.53
2023-03-16T06:10:53.750Z,8.52
2023-03-16T06:13:58.059Z,11.23
2023-03-16T06:17:01.321Z,7.53
2023-03-16T06:20:10.535Z,9.05
2023-03-16T06:23:14.537Z,8.97
2023-03-16T06:26:17.450Z,8.57
2023-03-16T06:29:21.392Z,6.47
2023-03-16T06:32:24.589Z,6.68
2023-03-16T06:35:27.767Z,9.60
2023-03-16T06:38:31.249Z,12.00
2023-03-16T06:41:35.949Z,10.75
2023-03-16T06:44:38.980Z,6.72
2023-03-16T06:47:43.772Z,8.98
2023-03-16T06:50:47.022Z,7.28
2023-03-16T06:53:51.014Z,9.57
2023-03-16T06:56:54.202Z,9.65
2023-03-16T06:59:58.018Z,6.90
2023-03-16T07:03:02.637Z,5.40
2023-03-16T07:06:06.876Z,10.88
2023-03-16T07:09:10.448Z,3.47
2023-03-16T07:12:17.154Z,7.80
2023-03-16T07:15:22.383Z,6.68
2023-03-16T07:18:26.962Z,6.70
2023-03-16T07:21:29.793Z,7.72
2023-03-16T07:24:33.045Z,9.40
2023-03-16T07:27:35.925Z,8.10
2023-03-16T07:30:39.448Z,6.05
2023-03-16T07:33:44.966Z,7.87
2023-03-16T07:36:52.995Z,9.00
2023-03-16T07:39:56.553Z,4.83
2023-03-16T07:42:59.636Z,4.85
2023-03-16T07:46:02.608Z,4.32
2023-03-16T07:49:05.624Z,4.75
2023-03-16T07:52:08.788Z,6.25
2023-03-16T07:55:13.924Z,7.03
2023-03-16T07:58:18.636Z,4.28
2023-03-16T08:01:23.472Z,5.80
2023-03-16T08:04:26.784Z,8.48
2023-03-16T08:07:29.550Z,4.87
2023-03-16T08:10:33.917Z,7.40
2023-03-16T08:13:37.094Z,4.85
2023-03-16T08:16:40.120Z,4.07
2023-03-16T08:19:43.170Z,4.35
2023-03-16T08:22:46.953Z,3.95
2023-03-16T08:25:57.657Z,4.00
2023-03-16T08:29:03.488Z,6.12
2023-03-16T08:32:07.966Z,4.53
2023-03-16T08:35:14.556Z,4.75
2023-03-16T08:38:17.619Z,5.75
2023-03-16T08:41:22.239Z,4.43
2023-03-16T08:44:26.341Z,6.18
2023-03-16T08:47:29.894Z,5.37
2023-03-16T08:50:33.739Z,5.78
2023-03-16T08:53:37.287Z,3.85
2023-03-16T08:56:40.025Z,3.90
2023-03-16T08:59:44.814Z,6.62
2023-03-16T09:02:48.119Z,4.25
2023-03-16T09:05:51.445Z,5.60
2023-03-16T09:08:56.181Z,5.40
2023-03-16T09:11:59.129Z,3.43
2023-03-16T09:15:01.924Z,3.95
2023-03-16T09:18:05.889Z,4.30
2023-03-16T09:21:10.737Z,5.47
2023-03-16T09:24:14.482Z,3.28
2023-03-16T09:27:18.221Z,4.10
2023-03-16T09:30:21.362Z,3.83
2023-03-16T09:33:25.471Z,4.40
2023-03-16T09:36:28.587Z,5.32
2023-03-16T09:39:32.089Z,3.90
2023-03-16T09:42:38.471Z,3.70
2023-03-16T09:46:02.938Z,3.90
2023-03-16T09:49:05.947Z,6.37
2023-03-16T09:52:34.155Z,3.45
2023-03-16T09:55:38.898Z,2.60
2023-03-16T09:58:42.020Z,3.27
2023-03-16T10:02:22.595Z,5.05
2023-03-16T10:05:27.426Z,3.30
2023-03-16T10:09:05.956Z,4.32
2023-03-16T10:12:10.062Z,3.67
2023-03-16T10:15:18.558Z,2.30
2023-03-16T10:18:39.002Z,2.40
2023-03-16T10:21:42.141Z,2.78
2023-03-16T10:25:16.094Z,3.12
2023-03-16T10:28:24.224Z,4.37
2023-03-16T10:31:28.421Z,3.50
2023-03-16T10:34:31.284Z,4.90
2023-03-16T10:37:34.734Z,3.95
2023-03-16T10:40:38.957Z,3.03
2023-03-16T10:43:42.206Z,3.47
2023-03-16T10:46:50.882Z,3.90
2023-03-16T10:49:53.961Z,4.18
2023-03-16T10:52:58.252Z,3.58
2023-03-16T10:56:12.055Z,2.95
2023-03-16T10:59:35.690Z,2.87
2023-03-16T11:02:39.717Z,2.90
2023-03-16T11:05:42.448Z,3.58
2023-03-16T11:08:45.582Z,3.53
2023-03-16T11:11:50.005Z,2.10
2023-03-16T11:14:54.161Z,3.08
2023-03-16T11:17:57.641Z,1.77
2023-03-16T11:21:09.594Z,2.72
2023-03-16T11:24:20.327Z,1.60
2023-03-16T11:27:40.992Z,2.15
2023-03-16T11:30:51.982Z,1.65
2023-03-16T11:33:57.607Z,2.37
2023-03-16T11:37:09.333Z,1.20
2023-03-16T11:40:38.673Z,1.80
2023-03-16T11:43:50.212Z,1.35
2023-03-16T11:47:05.630Z,1.75
2023-03-16T11:50:20.175Z,1.97
2023-03-16T11:53:29.408Z,2.08
2023-03-16T11:56:57.524Z,2.45
2023-03-16T12:00:06.415Z,2.80
2023-03-16T12:03:47.814Z,2.20
2023-03-16T12:07:01.137Z,1.97
2023-03-16T12:10:23.801Z,1.35
2023-03-16T12:13:42.262Z,1.90
2023-03-16T12:16:54.014Z,1.15
2023-03-16T12:20:04.749Z,1.67
2023-03-16T12:23:15.092Z,1.97
2023-03-16T12:26:19.045Z,2.22
2023-03-16T12:29:32.608Z,2.08
2023-03-16T12:33:16.731Z,1.80
2023-03-16T12:36:32.121Z,1.40
2023-03-16T12:39:52.886Z,0.80
2023-03-16T12:43:08.433Z,1.60
2023-03-16T12:46:19.639Z,1.40
2023-03-16T12:49:28.876Z,1.35
2023-03-16T12:52:43.317Z,1.92
2023-03-16T12:55:46.226Z,1.10
2023-03-16T12:58:50.562Z,1.87
2023-03-16T13:01:57.913Z,1.23
2023-03-16T13:05:12.146Z,1.50
2023-03-16T13:08:16.985Z,2.10
2023-03-16T13:11:20.322Z,1.63
2023-03-16T13:14:40.698Z,1.62
2023-03-16T13:17:44.150Z,1.52
2023-03-16T13:20:47.319Z,1.20
2023-03-16T13:24:18.948Z,1.45
2023-03-16T13:27:28.465Z,2.67
2023-03-16T13:30:33.501Z,1.52
2023-03-16T13:33:38.310Z,1.85
2023-03-16T13:36:41.738Z,2.30
2023-03-16T13:39:59.836Z,1.52
2023-03-16T13:43:03.169Z,1.63
2023-03-16T13:46:21.536Z,1.60
2023-03-16T13:49:24.344Z,1.20
2023-03-16T13:52:34.791Z,1.65
2023-03-16T13:55:38.597Z,1.37
2023-03-16T13:58:45.191Z,1.40
2023-03-16T14:01:49.215Z,2.40
2023-03-16T14:04:53.171Z,2.33
2023-03-16T14:07:56.914Z,2.08
2023-03-16T14:11:01.463Z,2.10
2023-03-16T14:14:14.724Z,1.50
2023-03-16T14:17:20.609Z,2.05
2023-03-16T14:20:26.079Z,2.30
2023-03-16T14:23:34.245Z,1.30
2023-03-16T14:26:42.243Z,2.12
2023-03-16T14:29:46.717Z,1.70
2023-03-16T14:33:04.463Z,0.95
2023-03-16T14:36:17.726Z,2.97
2023-03-16T14:39:21.870Z,1.85
2023-03-16T14:42:28.806Z,2.15
2023-03-16T14:45:34.159Z,2.03
2023-03-16T14:48:38.123Z,1.50
2023-03-16T14:51:41.527Z,1.60
2023-03-16T14:54:44.446Z,1.60
2023-03-16T14:57:47.362Z,1.52
2023-03-16T15:00:54.413Z,1.30
2023-03-16T15:03:57.514Z,1.52
2023-03-16T15:07:02.304Z,1.55
2023-03-16T15:10:22.171Z,1.50
2023-03-16T15:13:40.055Z,1.90
2023-03-16T15:16:42.614Z,2.07
2023-03-16T15:19:45.463Z,2.53
2023-03-16T15:22:51.176Z,1.48
2023-03-16T15:25:58.577Z,2.00
2023-03-16T15:29:01.239Z,1.65
2023-03-16T15:32:06.823Z,1.67
2023-03-16T15:35:09.547Z,1.40
2023-03-16T15:38:19.542Z,1.92
2023-03-16T15:41:23.221Z,2.47
2023-03-16T15:44:26.153Z,3.35
2023-03-16T15:47:28.799Z,2.30
2023-03-16T15:50:31.766Z,3.28
2023-03-16T15:53:44.297Z,2.65
2023-03-16T15:56:54.310Z,7.97
2023-03-16T15:59:59.359Z,2.60
2023-03-16T16:03:03.018Z,1.40
2023-03-16T16:06:11.199Z,1.20
2023-03-16T16:09:14.197Z,2.50
2023-03-16T16:12:17.923Z,2.35
2023-03-16T16:15:23.625Z,3.53
2023-03-16T16:18:27.871Z,2.40
2023-03-16T16:21:32.025Z,2.62
2023-03-16T16:24:35.680Z,2.58
2023-03-16T16:27:38.296Z,1.95
2023-03-16T16:30:41.634Z,3.83
2023-03-16T16:33:44.331Z,2.20
2023-03-16T16:36:48.433Z,3.70
2023-03-16T16:39:51.047Z,2.03
2023-03-16T16:42:54.222Z,4.10
2023-03-16T16:45:56.974Z,3.75
2023-03-16T16:49:23.768Z,4.97
2023-03-16T16:52:26.748Z,11.27
2023-03-16T16:55:29.976Z,8.55
2023-03-16T16:58:33.315Z,4.53
2023-03-16T17:01:37.218Z,8.77
2023-03-16T17:04:39.948Z,7.13
2023-03-16T17:07:43.617Z,5.35
2023-03-16T17:10:46.590Z,7.93
2023-03-16T17:13:50.700Z,9.15
2023-03-16T17:16:53.508Z,7.90
2023-03-16T17:19:56.525Z,7.63
2023-03-16T17:23:00.265Z,7.28
2023-03-16T17:26:21.883Z,9.13
2023-03-16T17:29:29.076Z,7.93
2023-03-16T17:32:33.384Z,8.52
2023-03-16T17:35:36.235Z,8.57
2023-03-16T17:38:39.325Z,8.07
2023-03-16T17:41:42.002Z,8.15
2023-03-16T17:44:49.711Z,5.43
2023-03-16T17:47:53.139Z,4.28
2023-03-16T17:50:56.706Z,3.90
2023-03-16T17:53:59.658Z,21.83
2023-03-16T17:57:02.676Z,6.18
2023-03-16T18:00:18.556Z,3.80
2023-03-16T18:03:22.549Z,51.40
2023-03-16T18:06:26.385Z,24.63
2023-03-16T18:09:29.631Z,30.90
2023-03-16T18:12:32.453Z,47.17
2023-03-16T18:15:36.729Z,51.28
2023-03-16T18:18:41.644Z,27.08
2023-03-16T18:21:46.107Z,22.37
2023-03-16T18:24:50.159Z,19.65
2023-03-16T18:27:53.605Z,5.12
2023-03-16T18:30:57.661Z,6.30
2023-03-16T18:34:02.970Z,5.55
2023-03-16T18:37:07.513Z,3.37
2023-03-16T18:40:15.922Z,3.10
2023-03-16T18:43:18.676Z,3.40
2023-03-16T18:46:30.962Z,4.28
2023-03-16T18:49:35.313Z,3.10
2023-03-16T18:52:39.351Z,2.60
2023-03-16T18:55:45.098Z,3.10
2023-03-16T18:58:49.201Z,3.70
2023-03-16T19:01:52.555Z,4.80
2023-03-16T19:04:58.679Z,4.40
2023-03-16T19:08:03.587Z,3.03
2023-03-16T19:11:08.299Z,5.43
2023-03-16T19:14:20.076Z,6.78
2023-03-16T19:17:23.491Z,3.37
2023-03-16T19:20:31.403Z,3.20
2023-03-16T19:23:36.493Z,8.07
2023-03-16T19:26:39.337Z,7.78
2023-03-16T19:29:43.609Z,4.82
2023-03-16T19:32:46.782Z,10.23
2023-03-16T19:35:52.226Z,18.60
2023-03-16T19:38:55.897Z,7.70
2023-03-16T19:41:59.724Z,7.12
2023-03-16T19:45:04.047Z,10.27
2023-03-16T19:48:13.342Z,9.27
2023-03-16T19:51:18.016Z,10.18
2023-03-16T19:54:23.912Z,10.37
2023-03-16T19:57:26.793Z,11.90
2023-03-16T20:00:31.057Z,10.02
2023-03-16T20:03:36.581Z,12.37
2023-03-16T20:06:39.475Z,9.52
2023-03-16T20:09:43.004Z,8.30
2023-03-16T20:12:47.450Z,8.32
2023-03-16T20:15:50.545Z,9.88
2023-03-16T20:18:56.138Z,9.57
2023-03-16T20:21:59.570Z,9.43
2023-03-16T20:25:05.328Z,13.37
2023-03-16T20:28:17.948Z,22.75
2023-03-16T20:31:23.622Z,27.20
2023-03-16T20:34:29.992Z,24.30
2023-03-16T20:37:32.785Z,23.30
2023-03-16T20:40:36.295Z,35.53
2023-03-16T20:43:39.301Z,31.00
2023-03-16T20:46:44.740Z,30.15
2023-03-16T20:49:47.787Z,26.87
2023-03-16T20:52:51.669Z,24.37
2023-03-16T20:55:55.278Z,25.00
2023-03-16T20:58:59.119Z,22.73
2023-03-16T21:02:03.251Z,23.42
2023-03-16T21:05:07.962Z,22.92
2023-03-16T21:08:11.155Z,30.55
2023-03-16T21:11:21.401Z,25.70
2023-03-16T21:14:24.672Z,22.67
2023-03-16T21:17:32.854Z,22.62
2023-03-16T21:20:35.996Z,22.55
2023-03-16T21:23:39.093Z,22.13
2023-03-16T21:26:42.844Z,22.77
2023-03-16T21:29:45.984Z,27.23
2023-03-16T21:32:48.897Z,25.05
2023-03-16T21:35:52.369Z,23.20
2023-03-16T21:38:55.983Z,19.87
2023-03-16T21:41:59.133Z,22.77
2023-03-16T21:45:01.869Z,20.83
2023-03-16T21:48:05.808Z,19.37
2023-03-16T21:51:19.692Z,19.30
2023-03-16T21:54:22.705Z,21.80
2023-03-16T21:57:25.706Z,20.93
2023-03-16T22:00:32.174Z,21.20
2023-03-16T22:03:50.101Z,17.90
2023-03-16T22:06:53.613Z,18.52
2023-03-16T22:09:56.487Z,19.27
2023-03-16T22:12:59.221Z,19.90
2023-03-16T22:16:03.632Z,19.05
2023-03-16T22:19:11.703Z,15.85
2023-03-16T22:22:16.877Z,16.85
2023-03-16T22:25:22.832Z,15.63
2023-03-16T22:28:26.532Z,15.37
2023-03-16T22:31:33.659Z,16.67
2023-03-16T22:34:55.991Z,17.67
2023-03-16T22:38:00.146Z,21.92
2023-03-16T22:41:03.669Z,19.05
2023-03-16T22:44:08.008Z,16.70
2023-03-16T22:47:22.497Z,16.27
2023-03-16T22:50:27.645Z,16.98
2023-03-16T22:53:40.325Z,16.02
2023-03-16T22:56:44.727Z,13.98
2023-03-16T22:59:48.787Z,10.63
2023-03-16T23:02:51.342Z,9.43
2023-03-16T23:05:54.407Z,10.70
2023-03-16T23:08:57.089Z,6.65
2023-03-16T23:12:01.562Z,10.07
2023-03-16T23:15:38.317Z,10.77
2023-03-16T23:18:42.153Z,10.10
2023-03-16T23:21:44.832Z,9.45
2023-03-16T23:24:47.726Z,10.48
2023-03-16T23:27:51.844Z,8.93
2023-03-16T23:30:54.804Z,8.70
2023-03-16T23:33:57.594Z,8.70
2023-03-16T23:37:00.400Z,8.30
2023-03-16T23:40:03.861Z,7.82
2023-03-16T23:43:07.878Z,7.07
2023-03-16T23:46:12.575Z,8.13
2023-03-16T23:49:24.792Z,6.50
2023-03-16T23:52:27.926Z,5.45
2023-03-16T23:55:31.099Z,5.85
2023-03-16T23:58:33.857Z,4.43
